createdAt,value
2019-05-26T00:01:10.138Z,10.23
2019-05-26T00:03:38.548Z,11.47
2019-05-26T00:06:06.954Z,7.03
2019-05-26T00:08:35.419Z,9.67
2019-05-26T00:11:03.827Z,9.23
2019-05-26T00:13:32.267Z,8.00
2019-05-26T00:16:00.771Z,16.80
2019-05-26T00:18:33.122Z,30.60
2019-05-26T00:20:59.320Z,27.23
2019-05-26T00:23:27.904Z,27.20
2019-05-26T00:25:56.334Z,18.53
2019-05-26T00:28:24.766Z,23.27
2019-05-26T00:30:53.186Z,12.00
2019-05-26T00:33:21.676Z,14.80
2019-05-26T00:35:50.091Z,14.30
2019-05-26T00:38:18.519Z,17.87
2019-05-26T00:40:47.510Z,23.07
2019-05-26T00:43:15.924Z,26.80
2019-05-26T00:45:44.352Z,26.73
2019-05-26T00:48:12.995Z,26.63
2019-05-26T00:50:41.426Z,17.67
2019-05-26T00:53:09.903Z,18.83
2019-05-26T00:55:38.321Z,18.87
2019-05-26T00:58:06.800Z,23.37
2019-05-26T01:00:43.478Z,22.03
2019-05-26T01:03:12.597Z,23.07
2019-05-26T01:05:41.486Z,17.23
2019-05-26T01:08:10.125Z,20.37
2019-05-26T01:10:38.614Z,17.73
2019-05-26T01:13:07.460Z,12.67
2019-05-26T01:15:36.047Z,11.90
2019-05-26T01:18:05.693Z,11.40
2019-05-26T01:20:34.101Z,22.47
2019-05-26T01:23:02.564Z,15.47
2019-05-26T01:25:30.988Z,12.23
2019-05-26T01:27:59.384Z,11.60
2019-05-26T01:30:38.580Z,16.20
2019-05-26T01:33:07.522Z,17.63
2019-05-26T01:35:39.615Z,15.90
2019-05-26T01:38:22.641Z,11.67
2019-05-26T01:40:43.715Z,15.30
2019-05-26T01:43:12.720Z,11.23
2019-05-26T01:45:41.505Z,9.10
2019-05-26T01:48:10.010Z,10.67
2019-05-26T01:50:38.569Z,8.67
2019-05-26T01:53:07.151Z,10.63
2019-05-26T01:55:35.625Z,12.70
2019-05-26T01:58:04.508Z,10.93
2019-05-26T02:00:33.094Z,10.80
2019-05-26T02:03:01.504Z,11.27
2019-05-26T02:05:29.904Z,19.50
2019-05-26T02:07:58.313Z,11.80
2019-05-26T02:10:26.708Z,10.70
2019-05-26T02:12:55.118Z,10.93
2019-05-26T02:15:24.704Z,12.27
2019-05-26T02:17:53.117Z,11.70
2019-05-26T02:20:21.761Z,8.87
2019-05-26T02:22:50.177Z,14.50
2019-05-26T02:25:19.221Z,10.70
2019-05-26T02:27:47.631Z,11.00
2019-05-26T02:30:16.166Z,10.90
2019-05-26T02:32:44.567Z,9.73
2019-05-26T02:35:14.212Z,9.77
2019-05-26T02:37:42.621Z,16.73
2019-05-26T02:40:13.483Z,16.50
2019-05-26T02:42:41.886Z,10.13
2019-05-26T02:45:12.061Z,16.50
2019-05-26T02:47:40.480Z,11.60
2019-05-26T02:50:09.336Z,17.20
2019-05-26T02:52:37.761Z,15.40
2019-05-26T02:55:07.403Z,10.77
2019-05-26T02:57:35.831Z,15.10
2019-05-26T03:00:08.970Z,11.23
2019-05-26T03:02:37.558Z,10.67
2019-05-26T03:05:11.492Z,10.30
2019-05-26T03:07:43.193Z,12.17
2019-05-26T03:10:15.776Z,15.03
2019-05-26T03:12:46.050Z,17.83
2019-05-26T03:15:14.787Z,15.70
2019-05-26T03:17:43.285Z,13.03
2019-05-26T03:20:13.574Z,14.07
2019-05-26T03:22:42.823Z,14.60
2019-05-26T03:25:12.706Z,19.43
2019-05-26T03:27:41.288Z,11.63
2019-05-26T03:30:10.101Z,10.60
2019-05-26T03:32:38.527Z,10.63
2019-05-26T03:35:08.861Z,11.80
2019-05-26T03:37:37.257Z,15.73
2019-05-26T03:40:08.747Z,10.87
2019-05-26T03:42:37.200Z,13.70
2019-05-26T03:45:08.570Z,17.20
2019-05-26T03:47:37.002Z,14.13
2019-05-26T03:50:06.848Z,19.40
2019-05-26T03:52:35.271Z,11.70
2019-05-26T03:55:04.687Z,11.37
2019-05-26T03:57:33.100Z,19.47
2019-05-26T04:00:01.499Z,9.93
2019-05-26T04:02:30.086Z,13.20
2019-05-26T04:04:58.482Z,12.43
2019-05-26T04:07:26.899Z,13.43
2019-05-26T04:10:04.782Z,14.10
2019-05-26T04:12:25.456Z,10.80
2019-05-26T04:14:53.853Z,11.97
2019-05-26T04:17:22.301Z,8.50
2019-05-26T04:19:50.700Z,10.40
2019-05-26T04:22:19.131Z,9.43
2019-05-26T04:24:47.528Z,8.83
2019-05-26T04:27:15.943Z,10.03
2019-05-26T04:29:44.356Z,9.70
2019-05-26T04:32:12.749Z,8.57
2019-05-26T04:34:41.147Z,8.23
2019-05-26T04:37:09.555Z,7.67
2019-05-26T04:39:37.956Z,7.80
2019-05-26T04:42:06.359Z,9.10
2019-05-26T04:44:34.781Z,15.57
2019-05-26T04:47:03.170Z,7.43
2019-05-26T04:49:31.574Z,7.10
2019-05-26T04:51:59.986Z,10.27
2019-05-26T04:54:28.465Z,7.87
2019-05-26T04:56:56.876Z,8.80
2019-05-26T04:59:25.295Z,10.33
2019-05-26T05:01:53.697Z,7.83
2019-05-26T05:04:22.096Z,8.63
2019-05-26T05:06:50.488Z,7.10
2019-05-26T05:09:18.912Z,7.20
2019-05-26T05:11:47.298Z,7.00
2019-05-26T05:14:15.716Z,8.43
2019-05-26T05:16:44.097Z,6.37
2019-05-26T05:19:12.498Z,6.80
2019-05-26T05:21:40.904Z,5.93
2019-05-26T05:24:09.314Z,7.77
2019-05-26T05:26:37.715Z,8.70
2019-05-26T05:29:06.130Z,13.23
2019-05-26T05:31:34.584Z,6.08
2019-05-26T05:34:03.016Z,6.60
2019-05-26T05:36:31.434Z,8.80
2019-05-26T05:38:59.868Z,6.20
2019-05-26T05:41:28.285Z,7.50
2019-05-26T05:43:56.694Z,6.83
2019-05-26T05:46:25.350Z,7.03
2019-05-26T05:48:53.763Z,6.67
2019-05-26T05:51:22.160Z,9.73
2019-05-26T05:53:50.610Z,7.80
2019-05-26T05:56:19.080Z,7.13
2019-05-26T05:58:47.480Z,6.60
2019-05-26T06:01:15.885Z,9.38
2019-05-26T06:03:44.329Z,6.23
2019-05-26T06:06:12.800Z,5.97
2019-05-26T06:08:41.204Z,6.63
2019-05-26T06:11:16.459Z,6.37
2019-05-26T06:13:39.727Z,8.23
2019-05-26T06:16:08.128Z,6.03
2019-05-26T06:18:36.544Z,6.13
2019-05-26T06:21:05.479Z,6.73
2019-05-26T06:23:36.836Z,6.37
2019-05-26T06:26:04.185Z,6.10
2019-05-26T06:28:32.581Z,6.73
2019-05-26T06:31:00.985Z,5.40
2019-05-26T06:33:29.391Z,5.03
2019-05-26T06:35:57.792Z,9.00
2019-05-26T06:38:26.209Z,6.33
2019-05-26T06:40:57.108Z,21.77
2019-05-26T06:43:24.732Z,5.60
2019-05-26T06:45:53.123Z,8.70
2019-05-26T06:48:21.583Z,5.50
2019-05-26T06:50:50.008Z,10.47
2019-05-26T06:53:18.412Z,9.20
2019-05-26T06:55:46.830Z,11.93
2019-05-26T06:58:15.235Z,9.73
2019-05-26T07:00:44.390Z,8.30
2019-05-26T07:03:12.798Z,9.03
2019-05-26T07:05:41.291Z,8.17
2019-05-26T07:08:09.690Z,11.57
2019-05-26T07:10:38.113Z,8.10
2019-05-26T07:13:06.578Z,9.80
2019-05-26T07:15:34.998Z,11.90
2019-05-26T07:18:03.415Z,13.10
2019-05-26T07:20:31.871Z,16.70
2019-05-26T07:23:00.343Z,8.87
2019-05-26T07:25:28.751Z,10.43
2019-05-26T07:27:57.157Z,7.57
2019-05-26T07:30:25.632Z,8.13
2019-05-26T07:32:54.038Z,10.47
2019-05-26T07:35:22.458Z,10.03
2019-05-26T07:37:50.858Z,12.13
2019-05-26T07:40:19.273Z,10.93
2019-05-26T07:42:47.677Z,7.50
2019-05-26T07:45:16.359Z,15.47
2019-05-26T07:47:44.767Z,9.63
2019-05-26T07:50:13.634Z,10.53
2019-05-26T07:52:42.040Z,7.03
2019-05-26T07:55:10.663Z,7.50
2019-05-26T07:57:39.147Z,10.53
2019-05-26T08:00:08.460Z,7.00
2019-05-26T08:02:36.851Z,9.70
2019-05-26T08:05:07.172Z,7.57
2019-05-26T08:07:35.645Z,14.03
2019-05-26T08:10:05.996Z,7.97
2019-05-26T08:12:34.395Z,7.20
2019-05-26T08:15:02.802Z,8.33
2019-05-26T08:17:31.198Z,8.53
2019-05-26T08:19:59.614Z,8.43
2019-05-26T08:22:28.027Z,11.77
2019-05-26T08:24:56.493Z,8.27
2019-05-26T08:27:24.902Z,7.93
2019-05-26T08:29:53.347Z,10.30
2019-05-26T08:32:21.745Z,8.60
2019-05-26T08:34:50.193Z,12.00
2019-05-26T08:37:18.684Z,12.60
2019-05-26T08:39:48.543Z,9.00
2019-05-26T08:42:26.751Z,8.83
2019-05-26T08:44:47.303Z,9.50
2019-05-26T08:47:15.706Z,9.00
2019-05-26T08:49:44.115Z,12.33
2019-05-26T08:52:12.537Z,12.67
2019-05-26T08:54:40.949Z,11.83
2019-05-26T08:57:09.367Z,8.63
2019-05-26T08:59:37.912Z,10.17
2019-05-26T09:02:06.320Z,11.70
2019-05-26T09:04:34.731Z,13.33
2019-05-26T09:07:03.243Z,11.90
2019-05-26T09:09:31.673Z,7.40
2019-05-26T09:12:00.093Z,8.07
2019-05-26T09:14:28.504Z,7.93
2019-05-26T09:16:56.924Z,7.00
2019-05-26T09:19:25.337Z,7.90
2019-05-26T09:21:53.763Z,8.00
2019-05-26T09:24:22.169Z,9.23
2019-05-26T09:26:50.591Z,9.60
2019-05-26T09:29:19.013Z,8.27
2019-05-26T09:31:47.431Z,9.20
2019-05-26T09:34:15.837Z,7.80
2019-05-26T09:36:44.245Z,11.03
2019-05-26T09:39:12.698Z,8.03
2019-05-26T09:41:41.150Z,9.50
2019-05-26T09:44:09.567Z,10.33
2019-05-26T09:46:37.984Z,13.07
2019-05-26T09:49:06.517Z,9.80
2019-05-26T09:51:34.924Z,13.77
2019-05-26T09:54:03.346Z,11.20
2019-05-26T09:56:31.752Z,13.00
2019-05-26T09:59:00.161Z,9.93
2019-05-26T10:01:28.576Z,8.13
2019-05-26T10:03:56.982Z,12.43
2019-05-26T10:06:25.383Z,7.43
2019-05-26T10:08:53.802Z,12.70
2019-05-26T10:11:22.210Z,8.83
2019-05-26T10:13:50.706Z,9.60
2019-05-26T10:16:19.108Z,14.27
2019-05-26T10:18:47.519Z,8.53
2019-05-26T10:21:15.930Z,14.67
2019-05-26T10:23:44.356Z,9.17
2019-05-26T10:26:12.752Z,8.13
2019-05-26T10:28:41.165Z,9.70
2019-05-26T10:31:09.645Z,12.00
2019-05-26T10:33:38.048Z,8.47
2019-05-26T10:36:06.456Z,9.60
2019-05-26T10:38:34.853Z,7.73
2019-05-26T10:41:03.264Z,8.33
2019-05-26T10:43:45.978Z,13.30
2019-05-26T10:46:01.812Z,9.07
2019-05-26T10:48:30.215Z,15.23
2019-05-26T10:50:58.623Z,11.73
2019-05-26T10:53:27.029Z,13.57
2019-05-26T10:55:55.437Z,10.93
2019-05-26T10:58:23.843Z,9.33
2019-05-26T11:00:52.275Z,7.37
2019-05-26T11:03:20.678Z,8.33
2019-05-26T11:05:49.102Z,9.10
2019-05-26T11:08:17.600Z,8.30
2019-05-26T11:10:46.005Z,9.33
2019-05-26T11:13:14.412Z,10.57
2019-05-26T11:15:42.823Z,7.60
2019-05-26T11:18:11.226Z,9.17
2019-05-26T11:20:39.635Z,9.10
2019-05-26T11:23:08.059Z,15.10
2019-05-26T11:25:36.462Z,7.67
2019-05-26T11:28:05.147Z,7.43
2019-05-26T11:30:33.718Z,10.87
2019-05-26T11:33:02.221Z,9.40
2019-05-26T11:35:30.649Z,7.13
2019-05-26T11:37:59.091Z,7.33
2019-05-26T11:40:27.551Z,14.00
2019-05-26T11:42:55.969Z,8.73
2019-05-26T11:45:24.372Z,7.27
2019-05-26T11:47:52.783Z,6.87
2019-05-26T11:50:21.420Z,12.70
2019-05-26T11:52:49.833Z,6.33
2019-05-26T11:55:18.909Z,8.00
2019-05-26T11:57:47.312Z,6.17
2019-05-26T12:00:17.082Z,14.47
2019-05-26T12:02:46.157Z,9.03
2019-05-26T12:05:17.432Z,7.83
2019-05-26T12:07:45.224Z,7.10
2019-05-26T12:10:14.740Z,8.00
2019-05-26T12:12:43.140Z,6.23
2019-05-26T12:15:12.492Z,8.43
2019-05-26T12:17:40.901Z,6.87
2019-05-26T12:20:10.973Z,7.00
2019-05-26T12:22:39.380Z,6.63
2019-05-26T12:25:08.720Z,6.60
2019-05-26T12:27:37.136Z,6.50
2019-05-26T12:30:07.650Z,10.30
2019-05-26T12:32:36.075Z,10.03
2019-05-26T12:35:07.226Z,12.07
2019-05-26T12:37:35.644Z,11.83
2019-05-26T12:40:05.885Z,6.23
2019-05-26T12:42:34.295Z,7.00
2019-05-26T12:45:02.702Z,6.17
2019-05-26T12:47:31.110Z,8.50
2019-05-26T12:49:59.508Z,6.70
2019-05-26T12:52:27.922Z,12.63
2019-05-26T12:54:56.400Z,7.70
2019-05-26T12:57:24.823Z,7.83
2019-05-26T12:59:53.220Z,18.50
2019-05-26T13:02:21.637Z,6.23
2019-05-26T13:04:50.039Z,10.40
2019-05-26T13:07:18.448Z,16.73
2019-05-26T13:09:46.851Z,8.27
2019-05-26T13:12:15.243Z,8.57
2019-05-26T13:14:43.653Z,13.00
2019-05-26T13:17:12.053Z,10.77
2019-05-26T13:19:40.468Z,5.80
2019-05-26T13:22:08.879Z,8.83
2019-05-26T13:24:37.289Z,7.17
2019-05-26T13:27:06.036Z,9.60
2019-05-26T13:29:34.473Z,5.30
2019-05-26T13:32:02.882Z,6.27
2019-05-26T13:34:31.313Z,9.60
2019-05-26T13:36:59.697Z,5.97
2019-05-26T13:39:28.104Z,12.63
2019-05-26T13:41:56.505Z,7.10
2019-05-26T13:44:24.919Z,6.73
2019-05-26T13:46:53.317Z,7.07
2019-05-26T13:49:21.760Z,5.20
2019-05-26T13:51:50.633Z,12.73
2019-05-26T13:54:19.099Z,6.70
2019-05-26T13:56:47.503Z,6.50
2019-05-26T13:59:15.918Z,13.60
2019-05-26T14:01:44.327Z,4.73
2019-05-26T14:04:12.747Z,11.57
2019-05-26T14:06:41.143Z,6.43
2019-05-26T14:09:10.462Z,7.10
2019-05-26T14:11:38.868Z,13.70
2019-05-26T14:14:07.304Z,7.43
2019-05-26T14:16:37.051Z,10.60
2019-05-26T14:19:05.638Z,4.00
2019-05-26T14:21:34.118Z,4.63
2019-05-26T14:24:02.534Z,3.43
2019-05-26T14:26:30.950Z,4.03
2019-05-26T14:28:59.353Z,3.40
2019-05-26T14:31:27.768Z,6.43
2019-05-26T14:33:56.251Z,5.70
2019-05-26T14:36:24.654Z,10.37
2019-05-26T14:38:53.068Z,10.30
2019-05-26T14:41:21.485Z,7.63
2019-05-26T14:43:49.888Z,4.83
2019-05-26T14:46:18.286Z,6.77
2019-05-26T14:48:46.704Z,9.63
2019-05-26T14:51:15.113Z,7.40
2019-05-26T14:53:43.527Z,5.50
2019-05-26T14:56:11.931Z,3.33
2019-05-26T14:58:40.343Z,3.70
2019-05-26T15:01:08.740Z,5.37
2019-05-26T15:03:37.160Z,3.70
2019-05-26T15:06:06.401Z,9.70
2019-05-26T15:08:34.850Z,8.43
2019-05-26T15:11:03.246Z,5.30
2019-05-26T15:13:31.661Z,4.37
2019-05-26T15:16:09.406Z,4.00
2019-05-26T15:18:30.223Z,10.03
2019-05-26T15:20:58.642Z,8.60
2019-05-26T15:23:26.043Z,11.40
2019-05-26T15:25:54.479Z,14.60
2019-05-26T15:28:22.930Z,3.60
2019-05-26T15:30:51.424Z,4.90
2019-05-26T15:33:19.828Z,4.70
2019-05-26T15:35:48.305Z,4.37
2019-05-26T15:38:16.718Z,5.73
2019-05-26T15:40:45.113Z,4.33
2019-05-26T15:43:13.508Z,3.47
2019-05-26T15:45:41.918Z,4.00
2019-05-26T15:48:10.377Z,7.70
2019-05-26T15:50:38.868Z,4.57
2019-05-26T15:53:07.260Z,7.00
2019-05-26T15:55:39.144Z,4.17
2019-05-26T15:58:05.866Z,4.30
2019-05-26T16:00:34.274Z,3.63
2019-05-26T16:03:02.668Z,4.07
2019-05-26T16:05:31.084Z,3.83
2019-05-26T16:07:59.480Z,4.03
2019-05-26T16:10:27.900Z,4.63
2019-05-26T16:12:56.278Z,4.47
2019-05-26T16:15:24.771Z,4.70
2019-05-26T16:17:53.163Z,6.83
2019-05-26T16:20:21.581Z,6.90
2019-05-26T16:22:50.001Z,9.63
2019-05-26T16:25:18.925Z,4.80
2019-05-26T16:27:47.320Z,4.83
2019-05-26T16:30:16.072Z,5.40
2019-05-26T16:32:44.453Z,4.37
2019-05-26T16:35:12.948Z,4.77
2019-05-26T16:37:41.806Z,5.00
2019-05-26T16:40:10.380Z,4.40
2019-05-26T16:42:38.777Z,4.73
2019-05-26T16:45:08.025Z,7.60
2019-05-26T16:47:36.420Z,4.63
2019-05-26T16:50:06.726Z,4.83
2019-05-26T16:52:35.127Z,6.27
2019-05-26T16:55:03.976Z,4.87
2019-05-26T16:57:32.377Z,4.50
2019-05-26T17:00:00.778Z,5.63
2019-05-26T17:02:29.195Z,11.70
2019-05-26T17:04:57.602Z,4.73
2019-05-26T17:07:26.005Z,6.70
2019-05-26T17:09:54.487Z,5.57
2019-05-26T17:12:22.899Z,4.60
2019-05-26T17:14:51.343Z,7.10
2019-05-26T17:17:19.749Z,7.83
2019-05-26T17:19:48.203Z,7.20
2019-05-26T17:22:16.602Z,4.20
2019-05-26T17:24:45.074Z,4.97
2019-05-26T17:27:13.473Z,4.60
2019-05-26T17:29:41.877Z,6.23
2019-05-26T17:32:10.437Z,6.77
2019-05-26T17:34:38.878Z,6.37
2019-05-26T17:37:07.287Z,4.33
2019-05-26T17:39:35.695Z,7.53
2019-05-26T17:42:04.178Z,5.03
2019-05-26T17:44:32.575Z,4.77
2019-05-26T17:47:00.985Z,8.60
2019-05-26T17:49:29.391Z,9.97
2019-05-26T17:51:57.795Z,4.63
2019-05-26T17:54:26.188Z,9.07
2019-05-26T17:56:54.603Z,4.80
2019-05-26T17:59:23.002Z,5.57
2019-05-26T18:01:51.414Z,4.47
2019-05-26T18:04:19.812Z,7.47
2019-05-26T18:06:48.239Z,9.33
2019-05-26T18:09:16.618Z,7.40
2019-05-26T18:11:45.034Z,4.33
2019-05-26T18:14:13.435Z,5.07
2019-05-26T18:16:41.858Z,8.37
2019-05-26T18:19:10.247Z,5.33
2019-05-26T18:21:38.660Z,4.53
2019-05-26T18:24:07.064Z,5.60
2019-05-26T18:26:35.479Z,6.00
2019-05-26T18:29:03.940Z,5.70
2019-05-26T18:31:32.375Z,8.27
2019-05-26T18:34:00.782Z,5.10
2019-05-26T18:36:29.195Z,8.67
2019-05-26T18:38:57.610Z,4.70
2019-05-26T18:41:26.029Z,4.80
2019-05-26T18:43:54.436Z,14.20
2019-05-26T18:46:22.872Z,5.30
2019-05-26T18:48:51.278Z,8.37
2019-05-26T18:51:19.691Z,9.57
2019-05-26T18:53:48.094Z,7.50
2019-05-26T18:56:16.500Z,15.70
2019-05-26T18:58:44.909Z,12.73
2019-05-26T19:01:13.358Z,17.90
2019-05-26T19:03:41.741Z,11.40
2019-05-26T19:06:10.151Z,11.90
2019-05-26T19:08:38.569Z,12.23
2019-05-26T19:11:06.979Z,11.57
2019-05-26T19:13:35.484Z,12.00
2019-05-26T19:16:03.959Z,11.93
2019-05-26T19:18:32.369Z,15.43
2019-05-26T19:21:00.805Z,16.30
2019-05-26T19:23:29.226Z,12.03
2019-05-26T19:25:57.639Z,13.20
2019-05-26T19:28:26.054Z,17.27
2019-05-26T19:30:54.458Z,15.70
2019-05-26T19:33:22.872Z,20.40
2019-05-26T19:35:51.269Z,14.67
2019-05-26T19:38:19.699Z,14.53
2019-05-26T19:40:48.097Z,18.60
2019-05-26T19:43:16.513Z,15.10
2019-05-26T19:45:44.922Z,14.40
2019-05-26T19:48:13.341Z,15.33
2019-05-26T19:50:41.742Z,14.23
2019-05-26T19:53:10.183Z,15.80
2019-05-26T19:55:38.553Z,13.87
2019-05-26T19:58:07.045Z,13.17
2019-05-26T20:00:35.486Z,15.20
2019-05-26T20:03:04.269Z,22.63
2019-05-26T20:05:32.669Z,16.90
2019-05-26T20:08:01.183Z,21.43
2019-05-26T20:10:29.656Z,14.60
2019-05-26T20:12:58.089Z,17.17
2019-05-26T20:15:26.484Z,14.43
2019-05-26T20:17:55.290Z,13.53
2019-05-26T20:20:23.771Z,14.80
2019-05-26T20:22:52.184Z,13.70
2019-05-26T20:25:20.731Z,14.27
2019-05-26T20:27:49.156Z,26.23
2019-05-26T20:30:21.236Z,14.93
2019-05-26T20:32:48.078Z,17.50
2019-05-26T20:35:16.822Z,23.80
2019-05-26T20:37:45.441Z,15.43
2019-05-26T20:40:14.568Z,15.33
2019-05-26T20:42:42.981Z,15.17
2019-05-26T20:45:11.565Z,21.80
2019-05-26T20:47:39.983Z,16.07
2019-05-26T20:50:08.833Z,18.63
2019-05-26T20:52:37.246Z,15.37
2019-05-26T20:55:09.030Z,21.33
2019-05-26T20:57:37.463Z,21.37
2019-05-26T21:00:08.264Z,14.87
2019-05-26T21:02:36.998Z,14.10
2019-05-26T21:05:07.186Z,15.00
2019-05-26T21:07:35.608Z,17.57
2019-05-26T21:10:07.717Z,13.30
2019-05-26T21:12:36.122Z,12.70
2019-05-26T21:15:06.791Z,12.80
2019-05-26T21:17:35.239Z,15.30
2019-05-26T21:20:07.825Z,10.80
2019-05-26T21:22:36.248Z,10.77
2019-05-26T21:25:05.876Z,14.37
2019-05-26T21:27:34.295Z,11.03
2019-05-26T21:30:02.774Z,8.97
2019-05-26T21:32:31.604Z,7.90
2019-05-26T21:35:00.020Z,9.50
2019-05-26T21:37:28.411Z,11.93
2019-05-26T21:39:56.811Z,9.90
2019-05-26T21:42:25.215Z,9.20
2019-05-26T21:44:53.644Z,9.07
2019-05-26T21:47:22.057Z,7.70
2019-05-26T21:49:50.447Z,7.73
2019-05-26T21:52:18.842Z,12.20
2019-05-26T21:54:47.256Z,7.47
2019-05-26T21:57:15.652Z,8.20
2019-05-26T21:59:44.058Z,7.03
2019-05-26T22:02:12.459Z,11.60
2019-05-26T22:04:40.859Z,6.63
2019-05-26T22:07:09.252Z,8.10
2019-05-26T22:09:37.657Z,7.80
2019-05-26T22:12:06.054Z,9.33
2019-05-26T22:14:34.543Z,7.50
2019-05-26T22:17:02.947Z,8.70
2019-05-26T22:19:31.389Z,9.13
2019-05-26T22:21:59.843Z,8.20
2019-05-26T22:24:28.258Z,9.40
2019-05-26T22:26:56.648Z,13.07
2019-05-26T22:29:25.056Z,7.43
2019-05-26T22:31:53.452Z,9.33
2019-05-26T22:34:21.857Z,6.60
2019-05-26T22:36:50.258Z,12.80
2019-05-26T22:39:18.744Z,6.70
2019-05-26T22:41:47.187Z,6.47
2019-05-26T22:44:15.594Z,6.27
2019-05-26T22:46:44.048Z,9.17
2019-05-26T22:49:12.451Z,6.20
2019-05-26T22:51:40.911Z,6.33
2019-05-26T22:54:09.348Z,7.17
2019-05-26T22:56:37.753Z,6.00
2019-05-26T22:59:06.270Z,8.10
2019-05-26T23:01:34.668Z,8.50
2019-05-26T23:04:03.490Z,8.60
2019-05-26T23:06:31.913Z,6.60
2019-05-26T23:09:00.326Z,6.43
2019-05-26T23:11:28.716Z,9.07
2019-05-26T23:13:57.115Z,6.43
2019-05-26T23:16:25.520Z,11.37
2019-05-26T23:18:53.949Z,6.90
2019-05-26T23:21:22.346Z,6.20
2019-05-26T23:23:50.758Z,11.23
2019-05-26T23:26:19.158Z,9.10
2019-05-26T23:28:47.571Z,8.13
2019-05-26T23:31:15.976Z,13.03
2019-05-26T23:33:44.387Z,15.00
2019-05-26T23:36:12.784Z,14.80
2019-05-26T23:38:41.252Z,10.87
2019-05-26T23:41:09.657Z,11.93
2019-05-26T23:43:38.056Z,16.93
2019-05-26T23:46:06.493Z,14.00
2019-05-26T23:48:34.893Z,14.53
2019-05-26T23:51:03.300Z,20.87
2019-05-26T23:53:31.709Z,17.07
2019-05-26T23:56:00.130Z,17.07
2019-05-26T23:58:28.534Z,15.97
